KEQA

Details ICAO KEQA
Name CAPTAIN JACK THOMAS EL DORADO
Region United States
Timezone America/Chicago (UTC-5.0)
Plans Departing 1
Arriving 2
Stats Elevation 1,378 ft / 420 m (AMSL)
Location 37.774222° -96.817599°
Runways 2
Magnetic Variation 3.210° E
Sunrise 2018-05-23 11:12:57 UTC / 2018-05-23 06:12:57 Local
Sunset 2018-05-24 01:38:00 UTC / 2018-05-23 20:38:00 Local
Advertisement - Login to hide

Runways

ID Width Length Bearing (true) Bearing (mag) Surface Threshold Offset Overrun Length
04 75 ft / 23 m 4,208 ft / 1,283 m 43.21° 40.00° Asphalt 0 ft / 0 m 0 ft / 0 m
15 75 ft / 23 m 4,204 ft / 1,281 m 158.83° 155.62° Concrete 0 ft / 0 m 0 ft / 0 m
22 75 ft / 23 m 4,208 ft / 1,283 m 223.22° 220.01° Asphalt 0 ft / 0 m 0 ft / 0 m
33 75 ft / 23 m 4,204 ft / 1,281 m 338.83° 335.62° Concrete 0 ft / 0 m 0 ft / 0 m

Map

Weather


0- 5 10 15 20 25 30 35+ Temperature / ° C

Clouds and Precipitation
Forecast for 2018-05-24 00:00 UTC. Updated 4 hours ago

Ground ~20,000 ft ~40,000 ft Winds

METAR

KEQA 240235Z AUTO 14008KT 10SM CLR 22/18 A3005 RMK AO2

TAF

Not found

Frequencies

Unicom 122.80 MHz CTAF/UNICOM
Approach 134.80 MHz WICHITA APP/DEP
Warning: Do not use this data for real-world aviation or navigation. No guarantee of current accuracy is given.